Time;durP1;ratioP1;P1;durP2;ratioP2;P2;SDS_P1;SDS_P2;PMS_P1;PMS_P2;Temp;Humidity;BMP_temperature;BMP_pressure;BME280_temperature;BME280_humidity;BME280_pressure;Samples;Min_cycle;Max_cycle;Signal;HPM_P1;HPM_P2
2020/12/12 00:01:22;;;;;;;14.93;9.00;;;4.90;99.90;;;;;;5028985;28;20431;-79
2020/12/12 00:03:48;;;;;;;12.75;8.10;;;4.90;99.90;;;;;;5028869;28;20044;-78
2020/12/12 00:06:24;;;;;;;13.15;8.70;;;4.90;99.90;;;;;;5015554;28;20013;-78
2020/12/12 00:08:52;;;;;;;12.60;8.15;;;4.90;99.90;;;;;;5027810;28;20025;-78
2020/12/12 00:11:21;;;;;;;13.38;7.95;;;4.90;99.90;;;;;;5031479;28;20035;-78
2020/12/12 00:13:46;;;;;;;13.27;7.80;;;4.90;99.90;;;;;;5030113;28;20064;-78
2020/12/12 00:16:15;;;;;;;12.10;7.90;;;4.90;99.90;;;;;;5060604;28;20899;-78
2020/12/12 00:18:43;;;;;;;12.15;7.97;;;4.90;99.90;;;;;;5030126;28;20034;-78
2020/12/12 00:21:10;;;;;;;12.55;8.02;;;4.90;99.90;;;;;;5026532;28;20028;-78
2020/12/12 00:23:36;;;;;;;11.88;7.80;;;4.90;99.90;;;;;;5027341;28;20025;-78
2020/12/12 00:26:05;;;;;;;12.90;7.80;;;5.00;99.90;;;;;;5027438;28;20048;-78
2020/12/12 00:28:33;;;;;;;12.35;7.55;;;4.90;99.90;;;;;;5024773;28;20064;-78
2020/12/12 00:30:59;;;;;;;12.32;7.43;;;4.90;99.90;;;;;;5028023;28;20068;-78
2020/12/12 00:33:27;;;;;;;11.77;6.80;;;5.00;99.90;;;;;;5029258;28;20087;-78
2020/12/12 00:35:53;;;;;;;10.32;6.50;;;4.90;99.90;;;;;;5019878;28;20095;-78
2020/12/12 00:38:19;;;;;;;9.55;6.03;;;4.90;99.90;;;;;;5028439;28;20064;-78
2020/12/12 00:40:47;;;;;;;9.20;5.60;;;5.00;99.90;;;;;;5036572;28;20483;-78
2020/12/12 00:43:12;;;;;;;10.13;5.97;;;5.00;99.90;;;;;;5015614;28;20057;-78
2020/12/12 00:45:47;;;;;;;8.55;5.30;;;4.90;99.90;;;;;;5029271;28;20130;-78
2020/12/12 00:48:15;;;;;;;9.30;5.72;;;4.90;99.90;;;;;;5031750;28;20029;-78
2020/12/12 00:50:47;;;;;;;8.25;5.22;;;4.90;99.90;;;;;;5033027;28;20598;-78
2020/12/12 00:53:13;;;;;;;7.55;4.60;;;5.00;99.90;;;;;;5030393;28;20030;-78
2020/12/12 00:55:41;;;;;;;8.25;4.80;;;4.90;99.90;;;;;;5033165;28;20032;-78
2020/12/12 00:58:09;;;;;;;8.48;4.70;;;4.90;99.90;;;;;;5029332;28;20648;-78
2020/12/12 01:00:34;;;;;;;7.28;4.40;;;4.90;99.90;;;;;;5018681;28;20599;-78
2020/12/12 01:03:03;;;;;;;7.50;4.50;;;4.90;99.90;;;;;;5028321;28;20026;-78
2020/12/12 01:05:31;;;;;;;7.15;4.63;;;4.90;99.90;;;;;;5031543;28;20041;-78
2020/12/12 01:08:00;;;;;;;8.00;4.63;;;4.90;99.90;;;;;;5033891;28;20561;-78
2020/12/12 01:10:28;;;;;;;7.65;4.55;;;4.90;99.90;;;;;;5033807;28;20029;-78
2020/12/12 01:12:53;;;;;;;7.28;4.47;;;4.90;99.90;;;;;;5033850;28;20033;-78
2020/12/12 01:15:22;;;;;;;8.48;4.93;;;4.90;99.90;;;;;;5030368;28;20025;-78
2020/12/12 01:17:47;;;;;;;7.82;4.95;;;4.90;99.90;;;;;;5028589;28;20048;-78
2020/12/12 01:20:13;;;;;;;9.35;4.93;;;4.90;99.90;;;;;;5028926;28;20018;-78
2020/12/12 01:22:43;;;;;;;7.95;4.80;;;4.90;99.90;;;;;;5031528;28;20033;-78
2020/12/12 01:25:09;;;;;;;7.43;4.28;;;4.90;99.90;;;;;;5039407;28;20055;-78
2020/12/12 01:27:37;;;;;;;7.70;4.60;;;4.90;99.90;;;;;;5032641;28;20029;-78
2020/12/12 01:30:03;;;;;;;7.80;4.32;;;4.90;99.90;;;;;;5031143;28;20171;-78
2020/12/12 01:32:29;;;;;;;7.47;4.50;;;4.90;99.90;;;;;;5050640;28;20083;-78
2020/12/12 01:34:55;;;;;;;7.95;4.80;;;4.90;99.90;;;;;;5033142;28;20060;-78
2020/12/12 01:37:21;;;;;;;7.25;4.40;;;4.90;99.90;;;;;;5034011;28;20192;-79
2020/12/12 01:39:46;;;;;;;9.32;4.68;;;4.90;99.90;;;;;;5033332;28;20489;-78
2020/12/12 01:42:17;;;;;;;7.63;4.22;;;4.90;99.90;;;;;;5032026;28;20411;-78
2020/12/12 01:44:45;;;;;;;8.27;4.47;;;4.90;99.90;;;;;;5030808;28;20043;-78
2020/12/12 01:47:17;;;;;;;8.60;5.00;;;4.90;99.90;;;;;;5023270;28;20048;-78
2020/12/12 01:49:42;;;;;;;8.80;5.13;;;4.90;99.90;;;;;;5031158;28;20068;-78
2020/12/12 01:52:08;;;;;;;9.50;5.85;;;4.90;99.90;;;;;;5030193;28;20068;-79
2020/12/12 01:54:34;;;;;;;9.30;4.93;;;4.90;99.90;;;;;;5028287;28;20084;-78
2020/12/12 01:57:01;;;;;;;8.93;5.05;;;4.90;99.90;;;;;;5029703;28;20026;-78
2020/12/12 01:59:30;;;;;;;8.60;5.15;;;4.90;99.90;;;;;;5027810;28;20064;-78
2020/12/12 02:01:56;;;;;;;8.80;4.80;;;4.90;99.90;;;;;;5029655;28;20018;-78
2020/12/12 02:04:22;;;;;;;8.00;4.63;;;4.90;99.90;;;;;;5034946;28;20051;-78
2020/12/12 02:06:47;;;;;;;7.68;4.32;;;4.90;99.90;;;;;;5016599;28;20064;-78
2020/12/12 02:09:18;;;;;;;8.23;4.47;;;4.90;99.90;;;;;;5032410;28;20048;-78
2020/12/12 02:11:44;;;;;;;8.25;4.70;;;4.90;99.90;;;;;;5035305;28;20033;-78
2020/12/12 02:14:11;;;;;;;13.38;7.18;;;4.90;99.90;;;;;;5032643;28;20464;-78
2020/12/12 02:16:53;;;;;;;12.38;6.97;;;4.80;99.90;;;;;;5013029;28;21810;-78
2020/12/12 02:19:19;;;;;;;16.27;8.88;;;4.90;99.90;;;;;;5030791;28;20024;-78
2020/12/12 02:21:51;;;;;;;19.38;10.32;;;4.80;99.90;;;;;;5032032;28;20033;-79
2020/12/12 02:24:17;;;;;;;;;;;4.80;99.90;;;;;;5034071;28;20025;-80
2020/12/12 02:26:47;;;;;;;26.77;12.32;;;4.70;99.90;;;;;;5035971;28;20338;-79
2020/12/12 02:29:18;;;;;;;21.65;11.02;;;4.70;99.90;;;;;;5030120;28;20521;-79
2020/12/12 02:31:46;;;;;;;24.65;12.35;;;4.70;99.90;;;;;;5032560;28;20351;-79
2020/12/12 02:34:14;;;;;;;23.55;11.20;;;4.70;99.90;;;;;;5029342;28;20486;-78
2020/12/12 02:36:43;;;;;;;21.13;11.20;;;4.70;99.90;;;;;;5031137;28;20147;-80
2020/12/12 02:39:13;;;;;;;19.35;11.00;;;4.70;99.90;;;;;;5036020;28;20029;-79
2020/12/12 02:41:38;;;;;;;21.88;12.40;;;4.80;99.90;;;;;;5027357;28;20079;-80
2020/12/12 02:44:04;;;;;;;32.55;13.65;;;4.80;99.90;;;;;;5031095;28;20636;-80
2020/12/12 02:46:30;;;;;;;26.08;12.00;;;4.80;99.90;;;;;;5015904;28;20026;-79
2020/12/12 02:48:56;;;;;;;29.80;12.32;;;4.80;99.90;;;;;;5030361;28;20052;-79
2020/12/12 02:51:21;;;;;;;23.30;12.45;;;4.80;99.90;;;;;;5031315;28;20021;-79
2020/12/12 02:53:49;;;;;;;27.88;12.10;;;4.90;99.90;;;;;;5026669;28;20029;-79
2020/12/12 02:56:18;;;;;;;38.20;13.05;;;4.90;99.90;;;;;;5009871;28;20022;-79
2020/12/12 02:58:44;;;;;;;37.58;14.02;;;4.90;99.90;;;;;;5033790;28;20021;-80
2020/12/12 03:01:10;;;;;;;133.70;16.23;;;4.90;99.90;;;;;;5030592;28;20021;-79
2020/12/12 03:03:35;;;;;;;65.57;14.52;;;4.90;99.90;;;;;;5026092;28;20039;-79
2020/12/12 03:06:01;;;;;;;46.85;13.68;;;4.90;99.90;;;;;;5029914;28;20026;-79
2020/12/12 03:08:31;;;;;;;42.65;13.70;;;4.90;99.90;;;;;;5030535;28;20424;-80
2020/12/12 03:10:57;;;;;;;30.75;13.50;;;5.00;99.90;;;;;;5031124;28;20054;-79
2020/12/12 03:13:25;;;;;;;70.88;15.13;;;5.00;99.90;;;;;;5034024;28;20037;-80
2020/12/12 03:15:51;;;;;;;31.77;11.85;;;5.00;99.90;;;;;;5031291;28;20022;-79
2020/12/12 03:18:19;;;;;;;86.97;13.65;;;5.00;99.90;;;;;;5031841;28;20139;-79
2020/12/12 03:20:49;;;;;;;52.67;13.07;;;5.00;99.90;;;;;;5035572;28;20033;-79
2020/12/12 03:23:15;;;;;;;44.95;13.55;;;5.00;99.90;;;;;;5032289;28;20099;-79
2020/12/12 03:25:40;;;;;;;38.40;12.30;;;5.00;99.90;;;;;;5030489;28;20167;-80
2020/12/12 03:28:06;;;;;;;17.27;8.88;;;5.00;99.90;;;;;;5030289;28;20083;-79
2020/12/12 03:30:38;;;;;;;16.15;8.32;;;5.00;99.90;;;;;;5031221;28;20030;-79
2020/12/12 03:33:06;;;;;;;13.50;7.28;;;5.00;99.90;;;;;;5030927;28;20107;-79
2020/12/12 03:35:34;;;;;;;14.02;7.15;;;5.00;99.90;;;;;;5014578;28;20060;-79
2020/12/12 03:38:00;;;;;;;14.43;7.68;;;5.00;99.90;;;;;;5029926;28;20121;-79
2020/12/12 03:40:28;;;;;;;15.02;8.10;;;5.00;99.90;;;;;;5031913;28;20472;-79
2020/12/12 03:42:54;;;;;;;16.58;7.68;;;5.00;99.90;;;;;;5033380;28;20025;-79
2020/12/12 03:45:25;;;;;;;14.38;7.43;;;5.00;99.90;;;;;;5029424;28;20059;-79
2020/12/12 03:47:55;;;;;;;13.93;7.50;;;5.00;99.90;;;;;;5027031;28;20045;-79
2020/12/12 03:50:32;;;;;;;14.30;7.47;;;5.10;99.90;;;;;;5034371;28;20154;-79
2020/12/12 03:52:58;;;;;;;13.18;6.45;;;5.00;99.90;;;;;;5032964;28;20027;-79
2020/12/12 03:55:28;;;;;;;14.18;7.57;;;5.00;99.90;;;;;;5032305;28;20217;-79
2020/12/12 03:57:59;;;;;;;13.45;6.90;;;5.10;99.90;;;;;;5033814;28;20538;-79
2020/12/12 04:00:27;;;;;;;14.52;7.65;;;5.10;99.90;;;;;;5028897;28;20027;-79
2020/12/12 04:02:53;;;;;;;14.15;7.00;;;5.10;99.90;;;;;;5027966;28;20021;-79
2020/12/12 04:05:19;;;;;;;13.57;7.40;;;5.00;99.90;;;;;;5027678;28;20031;-79
2020/12/12 04:07:47;;;;;;;14.27;7.63;;;5.00;99.90;;;;;;5035587;28;20087;-79
2020/12/12 04:10:12;;;;;;;16.00;7.82;;;5.00;99.90;;;;;;5030139;28;20018;-79
2020/12/12 04:12:38;;;;;;;15.48;8.32;;;5.00;99.90;;;;;;5034565;28;20352;-79
2020/12/12 04:15:04;;;;;;;13.05;7.03;;;5.00;99.90;;;;;;5035342;28;20179;-79
2020/12/12 04:17:30;;;;;;;13.73;7.05;;;5.00;99.90;;;;;;5033057;28;20025;-79
2020/12/12 04:19:58;;;;;;;12.18;6.85;;;5.00;99.90;;;;;;5035680;28;20064;-79
2020/12/12 04:22:23;;;;;;;10.65;6.10;;;5.00;99.90;;;;;;5035142;28;20363;-79
2020/12/12 04:24:51;;;;;;;13.13;6.35;;;5.00;99.90;;;;;;5031918;28;20033;-79
2020/12/12 04:27:19;;;;;;;12.82;5.90;;;5.00;99.90;;;;;;5034315;28;20099;-79
2020/12/12 04:29:50;;;;;;;11.40;6.13;;;5.00;99.90;;;;;;5034275;28;20037;-79
2020/12/12 04:32:20;;;;;;;11.93;6.25;;;5.00;99.90;;;;;;5031996;28;20042;-79
2020/12/12 04:34:50;;;;;;;11.13;5.93;;;5.00;99.90;;;;;;5050024;28;20045;-79
2020/12/12 04:37:16;;;;;;;12.32;6.05;;;4.90;99.90;;;;;;5032818;28;20335;-79
2020/12/12 04:39:42;;;;;;;12.55;6.30;;;5.00;99.90;;;;;;5036796;28;20025;-79
2020/12/12 04:42:10;;;;;;;12.18;6.13;;;5.00;99.90;;;;;;5033935;28;20102;-79
2020/12/12 04:44:36;;;;;;;11.48;6.13;;;5.00;99.90;;;;;;5018153;28;20040;-79
2020/12/12 04:47:06;;;;;;;11.80;6.20;;;5.00;99.90;;;;;;5031747;28;20041;-79
2020/12/12 04:49:33;;;;;;;10.25;5.55;;;5.00;99.90;;;;;;5030001;28;20048;-79
2020/12/12 04:51:59;;;;;;;11.20;5.60;;;5.00;99.90;;;;;;5034340;28;20038;-79
2020/12/12 04:54:25;;;;;;;10.32;5.32;;;5.00;99.90;;;;;;5052714;28;20033;-79
2020/12/12 04:56:53;;;;;;;9.63;4.90;;;5.00;99.90;;;;;;5023123;28;20022;-79
2020/12/12 04:59:21;;;;;;;12.00;5.68;;;5.00;99.90;;;;;;5031117;28;20048;-79
2020/12/12 05:01:47;;;;;;;8.95;4.85;;;5.00;99.90;;;;;;5020020;28;20033;-79
2020/12/12 05:04:13;;;;;;;9.80;5.25;;;4.90;99.90;;;;;;5037426;28;20091;-80
2020/12/12 05:06:39;;;;;;;9.20;5.03;;;4.90;99.90;;;;;;5031870;28;20059;-80
2020/12/12 05:09:07;;;;;;;9.05;4.90;;;4.90;99.90;;;;;;5031941;28;20026;-79
2020/12/12 05:11:35;;;;;;;8.18;4.63;;;4.90;99.90;;;;;;5035314;28;20094;-79
2020/12/12 05:14:06;;;;;;;9.25;5.05;;;4.90;99.90;;;;;;5036178;28;20030;-79
2020/12/12 05:16:32;;;;;;;9.95;5.20;;;4.90;99.90;;;;;;5033804;28;20037;-79
2020/12/12 05:19:01;;;;;;;10.50;5.07;;;4.90;99.90;;;;;;5032311;28;20017;-79
2020/12/12 05:21:29;;;;;;;11.00;5.60;;;4.90;99.90;;;;;;5028521;28;20021;-79
2020/12/12 05:23:55;;;;;;;9.98;5.20;;;4.90;99.90;;;;;;5027360;28;20036;-79
2020/12/12 05:26:24;;;;;;;9.55;5.28;;;4.90;99.90;;;;;;5037052;28;20029;-79
2020/12/12 05:28:50;;;;;;;10.23;4.90;;;4.90;99.90;;;;;;5036810;28;20093;-79
2020/12/12 05:31:16;;;;;;;9.05;5.03;;;4.90;99.90;;;;;;5033654;28;20029;-79
2020/12/12 05:33:41;;;;;;;10.00;4.90;;;4.90;99.90;;;;;;5031190;28;20033;-79
2020/12/12 05:36:10;;;;;;;11.27;5.07;;;4.90;99.90;;;;;;5036102;28;20049;-79
2020/12/12 05:38:38;;;;;;;11.50;5.88;;;4.90;99.90;;;;;;5033510;28;20040;-79
2020/12/12 05:41:06;;;;;;;10.35;5.35;;;4.90;99.90;;;;;;5038107;28;20026;-79
2020/12/12 05:43:36;;;;;;;10.73;5.40;;;4.90;99.90;;;;;;5032166;28;20048;-79
2020/12/12 05:46:02;;;;;;;10.20;5.20;;;4.90;99.90;;;;;;5036017;28;20040;-79
2020/12/12 05:48:27;;;;;;;9.85;5.00;;;4.90;99.90;;;;;;5034006;28;20022;-79
2020/12/12 05:50:53;;;;;;;10.60;4.85;;;4.90;99.90;;;;;;5030574;28;20484;-79
2020/12/12 05:53:21;;;;;;;10.07;5.40;;;4.90;99.90;;;;;;5046638;28;20171;-79
2020/12/12 05:55:47;;;;;;;10.82;5.28;;;4.90;99.90;;;;;;5031843;28;20033;-79
2020/12/12 05:58:15;;;;;;;10.43;5.38;;;4.90;99.90;;;;;;5037251;28;20039;-79
2020/12/12 06:00:41;;;;;;;10.57;5.18;;;4.90;99.90;;;;;;5030829;28;20051;-79
2020/12/12 06:03:31;;;;;;;9.63;5.10;;;4.90;99.90;;;;;;5026963;28;20024;-79
2020/12/12 06:06:06;;;;;;;12.02;5.38;;;4.90;99.90;;;;;;5033663;28;20371;-79
2020/12/12 06:08:38;;;;;;;13.32;5.35;;;4.90;99.90;;;;;;5032797;28;20083;-79
2020/12/12 06:11:08;;;;;;;11.43;5.57;;;4.90;99.90;;;;;;5032750;28;20021;-79
2020/12/12 06:13:41;;;;;;;12.88;5.75;;;4.90;99.90;;;;;;5035811;28;20053;-79
2020/12/12 06:16:12;;;;;;;11.93;6.07;;;4.90;99.90;;;;;;5032013;28;20036;-79
2020/12/12 06:18:58;;;;;;;11.60;5.65;;;4.90;99.90;;;;;;5032883;28;20021;-79
2020/12/12 06:21:29;;;;;;;11.38;5.50;;;4.90;99.90;;;;;;5022477;28;20030;-79
2020/12/12 06:24:00;;;;;;;11.95;6.25;;;4.90;99.90;;;;;;5032270;28;20028;-79
2020/12/12 06:26:49;;;;;;;10.18;5.57;;;4.90;99.90;;;;;;5031029;28;20025;-79
2020/12/12 06:29:18;;;;;;;13.15;6.38;;;5.00;99.90;;;;;;5027783;28;20041;-79
2020/12/12 06:31:44;;;;;;;11.77;6.18;;;5.00;99.90;;;;;;5018875;28;20113;-79
2020/12/12 06:34:10;;;;;;;10.32;5.47;;;5.00;99.90;;;;;;5035940;28;20105;-79
2020/12/12 06:36:36;;;;;;;11.95;6.07;;;5.00;99.90;;;;;;5031742;28;20044;-79
2020/12/12 06:39:22;;;;;;;22.42;12.43;;;5.00;99.90;;;;;;5028738;28;20052;-79
2020/12/12 06:41:54;;;;;;;35.47;18.25;;;5.00;99.90;;;;;;5033029;28;20549;-79
2020/12/12 06:44:43;;;;;;;32.50;17.00;;;5.00;99.90;;;;;;5045654;28;20028;-79
2020/12/12 06:47:11;;;;;;;41.08;20.38;;;5.00;99.90;;;;;;5032071;28;20075;-79
2020/12/12 06:49:42;;;;;;;34.42;18.88;;;4.90;99.90;;;;;;5029504;28;20056;-79
2020/12/12 06:52:10;;;;;;;44.28;21.02;;;5.00;99.90;;;;;;5031899;28;20060;-79
2020/12/12 06:54:35;;;;;;;39.33;20.48;;;5.00;99.90;;;;;;5028882;28;20041;-79
2020/12/12 06:57:03;;;;;;;37.78;19.63;;;5.00;99.90;;;;;;5033475;28;20018;-79
2020/12/12 06:59:36;;;;;;;34.55;18.95;;;5.00;99.90;;;;;;5031270;28;20036;-79
2020/12/12 07:02:05;;;;;;;50.83;22.52;;;5.10;99.90;;;;;;5027130;28;20032;-79
2020/12/12 07:04:37;;;;;;;34.03;19.10;;;5.10;99.90;;;;;;5029314;28;20544;-79
2020/12/12 07:07:10;;;;;;;35.15;19.17;;;5.10;99.90;;;;;;5031190;28;20413;-79
2020/12/12 07:09:39;;;;;;;37.38;18.83;;;5.00;99.90;;;;;;5030196;28;20450;-79
2020/12/12 07:12:10;;;;;;;33.15;17.65;;;5.10;99.90;;;;;;5028990;28;20463;-79
2020/12/12 07:14:38;;;;;;;35.38;18.70;;;5.10;99.90;;;;;;5017383;28;20040;-79
2020/12/12 07:17:07;;;;;;;45.90;22.55;;;5.10;99.90;;;;;;5028822;28;20030;-79
2020/12/12 07:19:36;;;;;;;36.92;20.08;;;5.10;99.90;;;;;;5030544;28;20025;-80
2020/12/12 07:22:09;;;;;;;35.03;18.73;;;5.20;99.90;;;;;;5032080;28;20021;-79
2020/12/12 07:24:34;;;;;;;35.65;19.10;;;5.20;99.90;;;;;;5032630;28;20029;-79
2020/12/12 07:27:05;;;;;;;35.13;19.10;;;5.20;99.90;;;;;;5033274;28;20104;-79
2020/12/12 07:29:30;;;;;;;30.88;18.42;;;5.20;99.90;;;;;;5033371;28;20040;-79
2020/12/12 07:31:56;;;;;;;37.33;20.58;;;5.20;99.90;;;;;;5017969;28;20017;-79
2020/12/12 07:34:25;;;;;;;45.42;21.77;;;5.20;99.90;;;;;;5030435;28;20093;-79
2020/12/12 07:36:57;;;;;;;39.85;21.08;;;5.20;99.90;;;;;;5032032;28;20025;-79
2020/12/12 07:39:30;;;;;;;36.92;20.48;;;5.20;99.90;;;;;;5031624;28;20616;-80
2020/12/12 07:41:57;;;;;;;34.17;19.65;;;5.20;99.90;;;;;;5032173;28;20024;-79
2020/12/12 07:44:26;;;;;;;64.70;26.02;;;5.20;99.90;;;;;;5034754;28;20031;-79
2020/12/12 07:47:12;;;;;;;81.97;26.30;;;5.20;99.90;;;;;;5033498;28;20048;-80
2020/12/12 07:49:38;;;;;;;55.25;24.83;;;5.20;99.90;;;;;;5038680;28;20024;-79
2020/12/12 07:52:12;;;;;;;42.63;21.52;;;5.10;99.90;;;;;;5031416;28;20033;-79
2020/12/12 07:54:50;;;;;;;42.15;21.08;;;5.10;99.90;;;;;;5033428;28;20022;-79
2020/12/12 07:57:18;;;;;;;40.85;20.63;;;5.10;99.90;;;;;;5031477;28;20013;-79
2020/12/12 07:59:46;;;;;;;29.88;15.93;;;5.10;99.90;;;;;;5030711;28;20030;-79
2020/12/12 08:02:14;;;;;;;22.70;11.50;;;5.10;99.90;;;;;;5036099;28;20583;-79
2020/12/12 08:04:42;;;;;;;22.13;10.32;;;5.20;99.90;;;;;;5049531;28;20029;-79
2020/12/12 08:07:11;;;;;;;30.20;14.68;;;5.20;99.90;;;;;;5033440;28;20037;-79
2020/12/12 08:09:40;;;;;;;27.67;11.93;;;5.20;99.90;;;;;;5035908;28;20026;-79
2020/12/12 08:12:06;;;;;;;26.65;11.30;;;5.20;99.90;;;;;;5031118;28;20482;-79
2020/12/12 08:14:48;;;;;;;23.90;11.80;;;5.20;99.90;;;;;;5037075;28;20035;-79
2020/12/12 08:17:16;;;;;;;24.58;12.30;;;5.20;99.90;;;;;;5037842;28;20084;-79
2020/12/12 08:19:46;;;;;;;23.42;11.88;;;5.20;99.90;;;;;;5036134;28;20049;-79
2020/12/12 08:22:23;;;;;;;23.48;11.57;;;5.20;99.90;;;;;;5034500;28;20059;-79
2020/12/12 08:24:49;;;;;;;23.38;11.38;;;5.20;99.90;;;;;;5020743;28;20099;-79
2020/12/12 08:27:30;;;;;;;19.95;10.13;;;5.20;99.90;;;;;;5012651;28;20121;-79
2020/12/12 08:30:00;;;;;;;19.95;10.52;;;5.30;99.90;;;;;;5033830;28;20127;-79
2020/12/12 08:32:38;;;;;;;22.45;11.50;;;5.20;99.90;;;;;;5033931;28;20052;-79
2020/12/12 08:35:07;;;;;;;22.85;11.85;;;5.30;99.90;;;;;;5035515;28;20481;-79
2020/12/12 08:37:35;;;;;;;23.08;11.75;;;5.30;99.90;;;;;;5034218;28;20068;-79
2020/12/12 08:40:10;;;;;;;24.08;12.38;;;5.30;99.90;;;;;;5037126;28;20476;-79
2020/12/12 08:42:35;;;;;;;22.67;11.30;;;5.30;99.90;;;;;;5037183;28;20040;-79
2020/12/12 08:45:19;;;;;;;23.92;12.05;;;5.30;99.90;;;;;;5031830;28;20370;-79
2020/12/12 08:47:57;;;;;;;21.45;10.55;;;5.30;99.90;;;;;;5033914;28;20029;-80
2020/12/12 08:50:23;;;;;;;23.13;10.93;;;5.30;99.90;;;;;;5032108;28;20029;-79
2020/12/12 08:52:51;;;;;;;25.55;12.93;;;5.30;99.90;;;;;;5030883;28;20036;-78
2020/12/12 08:55:18;;;;;;;22.02;11.13;;;5.20;99.90;;;;;;5033762;28;20036;-78
2020/12/12 08:58:00;;;;;;;20.52;10.15;;;5.30;99.90;;;;;;5036034;28;20113;-79
2020/12/12 09:00:26;;;;;;;15.07;7.97;;;5.30;99.90;;;;;;5035610;28;20025;-79
2020/12/12 09:03:01;;;;;;;19.42;9.70;;;5.30;99.90;;;;;;5032824;28;20076;-79
2020/12/12 09:05:34;;;;;;;21.58;10.82;;;5.30;99.90;;;;;;5030340;28;20600;-79
2020/12/12 09:08:26;;;;;;;20.65;10.35;;;5.30;99.90;;;;;;5034386;28;20041;-79
2020/12/12 09:10:52;;;;;;;15.27;7.82;;;5.30;99.90;;;;;;5033030;28;20037;-79
2020/12/12 09:13:17;;;;;;;21.23;10.85;;;5.30;99.90;;;;;;5032438;28;20048;-79
2020/12/12 09:15:45;;;;;;;21.02;10.75;;;5.30;99.90;;;;;;5032065;28;20465;-79
2020/12/12 09:18:15;;;;;;;20.33;9.80;;;5.30;99.90;;;;;;5032628;28;20071;-79
2020/12/12 09:20:43;;;;;;;19.70;10.05;;;5.30;99.90;;;;;;5027600;28;20033;-79
2020/12/12 09:23:11;;;;;;;20.90;10.38;;;5.30;99.90;;;;;;5029653;28;20526;-79
2020/12/12 09:25:37;;;;;;;19.35;10.05;;;5.40;99.90;;;;;;5034209;28;20025;-79
2020/12/12 09:28:02;;;;;;;20.77;10.43;;;5.40;99.90;;;;;;5033790;28;20021;-79
2020/12/12 09:30:30;;;;;;;18.20;9.98;;;5.40;99.90;;;;;;5030749;28;20041;-79
2020/12/12 09:32:56;;;;;;;21.77;10.55;;;5.40;99.90;;;;;;5037002;28;20029;-79
2020/12/12 09:35:26;;;;;;;19.10;10.05;;;5.40;99.90;;;;;;5033317;28;20060;-79
2020/12/12 09:37:53;;;;;;;19.25;9.88;;;5.40;99.90;;;;;;5035763;28;20043;-79
2020/12/12 09:40:19;;;;;;;18.58;9.88;;;5.40;99.90;;;;;;5019874;28;20612;-79
2020/12/12 09:42:46;;;;;;;18.50;9.90;;;5.50;99.90;;;;;;5031842;28;20029;-79
2020/12/12 09:45:14;;;;;;;18.67;9.52;;;5.50;99.90;;;;;;5032632;28;20112;-79
2020/12/12 09:47:42;;;;;;;43.03;23.38;;;5.50;99.90;;;;;;5035181;28;20036;-79
2020/12/12 09:50:08;;;;;;;21.70;10.93;;;5.50;99.90;;;;;;5036758;28;20120;-79
2020/12/12 09:52:39;;;;;;;22.17;10.95;;;5.50;99.90;;;;;;5032079;28;20093;-79
2020/12/12 09:55:07;;;;;;;20.73;12.77;;;5.50;99.90;;;;;;5032879;28;20727;-80
2020/12/12 09:57:35;;;;;;;21.85;10.43;;;5.60;99.90;;;;;;5033409;28;20052;-79
2020/12/12 10:00:03;;;;;;;18.60;10.15;;;5.60;99.90;;;;;;5032192;28;20020;-79
2020/12/12 10:02:30;;;;;;;19.00;9.95;;;5.60;99.90;;;;;;5033176;28;20120;-80
2020/12/12 10:04:58;;;;;;;17.73;9.60;;;5.60;99.90;;;;;;5036800;28;20056;-79
2020/12/12 10:07:29;;;;;;;20.85;10.60;;;5.70;99.90;;;;;;5030538;28;20033;-80
2020/12/12 10:09:57;;;;;;;23.50;13.15;;;5.70;99.90;;;;;;5027497;28;20089;-80
2020/12/12 10:12:22;;;;;;;21.85;13.38;;;5.70;99.90;;;;;;5026357;28;20033;-79
2020/12/12 10:14:49;;;;;;;20.88;12.88;;;5.70;99.90;;;;;;5014890;28;20056;-79
2020/12/12 10:17:14;;;;;;;22.05;13.45;;;5.70;99.90;;;;;;4667232;28;10000849;-79
2020/12/12 10:19:43;;;;;;;25.98;15.38;;;5.80;99.90;;;;;;5015425;28;20037;-79
2020/12/12 10:22:09;;;;;;;20.35;12.70;;;5.80;99.90;;;;;;4998212;28;20044;-78
2020/12/12 10:24:36;;;;;;;26.58;14.63;;;5.80;99.90;;;;;;5014712;28;20045;-79
2020/12/12 10:27:02;;;;;;;24.90;15.00;;;5.80;99.90;;;;;;5046090;28;20123;-79
2020/12/12 10:29:30;;;;;;;32.22;18.02;;;5.80;99.90;;;;;;4999882;28;20112;-79
2020/12/12 10:31:56;;;;;;;25.90;15.65;;;5.80;99.90;;;;;;5014760;28;20596;-80
2020/12/12 10:34:22;;;;;;;27.58;16.02;;;5.80;99.90;;;;;;5047115;28;20037;-79
2020/12/12 10:36:52;;;;;;;33.50;18.02;;;5.80;99.90;;;;;;5025981;28;20475;-79
2020/12/12 10:39:30;;;;;;;27.73;16.75;;;5.80;99.90;;;;;;5023066;28;20459;-77
2020/12/12 10:41:59;;;;;;;30.42;17.65;;;5.90;99.90;;;;;;5034176;28;20144;-78
2020/12/12 10:44:27;;;;;;;41.25;22.13;;;5.80;99.90;;;;;;5016047;28;20104;-78
2020/12/12 10:46:53;;;;;;;40.42;21.35;;;5.90;99.90;;;;;;4997411;28;20038;-78
2020/12/12 10:49:18;;;;;;;38.58;20.63;;;5.80;99.90;;;;;;5014832;28;20037;-75
2020/12/12 10:51:49;;;;;;;42.88;22.70;;;5.90;99.90;;;;;;5014275;28;20762;-78
2020/12/12 10:54:16;;;;;;;39.60;21.85;;;5.90;99.90;;;;;;5014848;28;20034;-77
2020/12/12 10:56:48;;;;;;;42.22;23.38;;;5.80;99.90;;;;;;5013888;28;20041;-79
2020/12/12 10:59:13;;;;;;;41.77;23.07;;;5.90;99.90;;;;;;4998262;28;20030;-76
2020/12/12 11:01:41;;;;;;;35.78;21.17;;;5.90;99.90;;;;;;5011994;28;20029;-77
2020/12/12 11:04:07;;;;;;;50.92;23.10;;;5.90;99.90;;;;;;5013885;28;20033;-77
2020/12/12 11:06:35;;;;;;;41.13;21.83;;;5.90;99.90;;;;;;5015319;28;20363;-79
2020/12/12 11:09:01;;;;;;;41.42;21.90;;;5.90;99.90;;;;;;5015119;28;20041;-78
2020/12/12 11:11:31;;;;;;;47.97;23.27;;;5.90;99.90;;;;;;5014140;28;20034;-79
2020/12/12 11:13:59;;;;;;;39.72;21.52;;;5.90;99.90;;;;;;5015151;28;20451;-78
2020/12/12 11:16:27;;;;;;;42.97;23.33;;;5.90;99.90;;;;;;5013651;28;20454;-80
2020/12/12 11:18:53;;;;;;;39.83;22.17;;;5.90;99.90;;;;;;5014611;28;20175;-78
2020/12/12 11:21:27;;;;;;;37.80;22.20;;;5.90;99.90;;;;;;5019426;28;20030;-78
2020/12/12 11:23:55;;;;;;;39.97;22.55;;;6.00;99.90;;;;;;5025080;28;20045;-81
2020/12/12 11:26:21;;;;;;;40.22;22.58;;;6.00;99.90;;;;;;5024589;28;20094;-83
2020/12/12 11:28:52;;;;;;;40.47;22.83;;;6.00;99.90;;;;;;5003645;28;20057;-81
2020/12/12 11:31:19;;;;;;;38.50;21.65;;;6.00;99.90;;;;;;5013445;28;20107;-80
2020/12/12 11:33:52;;;;;;;53.20;25.52;;;6.10;99.90;;;;;;4998778;28;20037;-79
2020/12/12 11:39:27;;;;;;;51.55;25.27;;;6.10;99.90;;;;;;5013529;28;20040;-73
2020/12/12 11:47:08;;;;;;;40.13;23.30;;;6.00;99.90;;;;;;5014198;28;20147;-79
2020/12/12 11:49:38;;;;;;;43.38;23.83;;;5.90;99.90;;;;;;5014454;28;20033;-79
2020/12/12 11:52:06;;;;;;;41.60;22.65;;;6.00;99.90;;;;;;5015185;28;20032;-78
2020/12/12 11:54:32;;;;;;;55.22;25.83;;;6.00;99.90;;;;;;5013666;28;20521;-78
2020/12/12 11:56:57;;;;;;;59.78;27.05;;;6.00;99.90;;;;;;5013910;28;20037;-79
2020/12/12 11:59:24;;;;;;;42.65;23.20;;;5.90;99.90;;;;;;5013501;28;20478;-79
2020/12/12 12:01:55;;;;;;;45.70;24.08;;;5.90;99.90;;;;;;5012968;28;20034;-78
2020/12/12 12:04:26;;;;;;;46.20;24.02;;;5.90;99.90;;;;;;5013671;28;20069;-79
2020/12/12 12:06:51;;;;;;;51.97;26.00;;;5.90;99.90;;;;;;5012902;28;20065;-79
2020/12/12 12:09:33;;;;;;;56.83;25.40;;;5.90;99.90;;;;;;5013570;28;20121;-79
2020/12/12 12:11:58;;;;;;;51.25;24.45;;;5.90;99.90;;;;;;5013811;28;20033;-79
2020/12/12 12:14:24;;;;;;;56.63;25.08;;;5.80;99.90;;;;;;5014449;28;20044;-78
2020/12/12 12:16:52;;;;;;;48.72;23.90;;;5.90;99.90;;;;;;5014207;28;20041;-79
2020/12/12 12:19:18;;;;;;;47.50;22.95;;;5.90;99.90;;;;;;5014061;28;20455;-79
2020/12/12 12:21:47;;;;;;;55.40;23.67;;;5.90;99.90;;;;;;5013861;28;20040;-80
2020/12/12 12:24:16;;;;;;;62.97;26.25;;;5.90;99.90;;;;;;5013313;28;20036;-79
2020/12/12 12:26:43;;;;;;;47.67;22.63;;;5.90;99.90;;;;;;5013838;28;20034;-78
2020/12/12 12:29:13;;;;;;;50.13;24.73;;;5.90;99.90;;;;;;5014753;28;20061;-78
2020/12/12 12:31:42;;;;;;;56.72;25.23;;;5.90;99.90;;;;;;5017002;28;20391;-78
2020/12/12 12:34:10;;;;;;;67.80;25.65;;;5.90;99.90;;;;;;5010713;28;20052;-78
2020/12/12 12:36:38;;;;;;;55.03;23.45;;;5.90;99.90;;;;;;5016845;28;20559;-79
2020/12/12 12:39:04;;;;;;;51.53;22.75;;;5.90;99.90;;;;;;5016545;28;20316;-79
2020/12/12 12:41:32;;;;;;;55.20;24.60;;;6.00;99.90;;;;;;5017207;28;20111;-80
2020/12/12 12:44:01;;;;;;;70.78;25.90;;;5.90;99.90;;;;;;5005095;28;20030;-75
2020/12/12 12:46:33;;;;;;;53.83;24.73;;;5.90;99.90;;;;;;5018068;28;20364;-81
2020/12/12 12:49:02;;;;;;;48.63;23.00;;;5.90;99.90;;;;;;5019981;28;20030;-79
2020/12/12 12:51:28;;;;;;;50.42;23.75;;;5.90;99.90;;;;;;5032766;28;20477;-79
2020/12/12 12:53:54;;;;;;;96.72;28.98;;;5.90;99.90;;;;;;5032362;28;20041;-79
2020/12/12 12:56:22;;;;;;;50.33;23.50;;;5.90;99.90;;;;;;5033775;28;20092;-78
2020/12/12 12:58:48;;;;;;;60.95;25.25;;;5.90;99.90;;;;;;5034768;28;20056;-78